Time;durP1;ratioP1;P1;durP2;ratioP2;P2;SDS_P1;SDS_P2;PMS_P1;PMS_P2;Temp;Humidity;BMP_temperature;BMP_pressure;BME280_temperature;BME280_humidity;BME280_pressure;Samples;Min_cycle;Max_cycle;Signal;HPM_P1;HPM_P2
2021/07/09 00:02:40;;;;;;;3.04;1.01;;;;;;;13.30;91.64;99849.41;2005805;78;20205;-83
2021/07/09 00:05:43;;;;;;;2.75;1.00;;;;;;;13.27;91.79;99843.31;2008964;81;20186;-82
2021/07/09 00:08:45;;;;;;;3.91;0.90;;;;;;;13.25;91.85;99834.66;2007771;81;20239;-83
2021/07/09 00:11:50;;;;;;;2.60;0.90;;;;;;;13.24;91.93;99828.56;2008913;81;20170;-84
2021/07/09 00:14:53;;;;;;;3.96;1.09;;;;;;;13.20;91.78;99831.22;2008187;81;20186;-83
2021/07/09 00:17:56;;;;;;;1.89;0.80;;;;;;;13.15;91.84;99833.84;2008270;78;22018;-83
2021/07/09 00:20:58;;;;;;;5.82;0.94;;;;;;;13.15;91.94;99828.63;2008312;81;20191;-83
2021/07/09 00:24:03;;;;;;;4.71;1.31;;;;;;;13.14;92.07;99820.81;2007164;81;20263;-83
2021/07/09 00:27:06;;;;;;;5.20;0.90;;;;;;;13.13;92.10;99825.16;2007573;81;20244;-84
2021/07/09 00:30:09;;;;;;;3.65;1.48;;;;;;;13.12;91.95;99830.41;2006725;81;20178;-82
2021/07/09 00:33:11;;;;;;;8.27;1.04;;;;;;;13.09;91.93;99825.19;2008821;81;20186;-83
2021/07/09 00:36:15;;;;;;;3.03;1.00;;;;;;;13.07;91.91;99819.13;2011235;81;20257;-84
2021/07/09 00:39:18;;;;;;;5.09;0.94;;;;;;;13.05;91.95;99826.94;2009481;81;20511;-84
2021/07/09 00:42:21;;;;;;;5.49;0.82;;;;;;;12.99;91.93;99827.00;2011221;81;20275;-84
2021/07/09 00:45:24;;;;;;;3.80;1.00;;;;;;;12.92;92.21;99827.91;2009474;81;27213;-84
2021/07/09 00:48:28;;;;;;;5.97;1.20;;;;;;;12.91;92.31;99829.66;2011248;81;20206;-84
2021/07/09 00:51:31;;;;;;;3.25;0.84;;;;;;;12.90;92.35;99825.31;2009599;81;20241;-84
2021/07/09 00:54:33;;;;;;;3.50;1.00;;;;;;;12.92;92.42;99825.28;2007681;81;20272;-83
2021/07/09 00:57:39;;;;;;;1.10;0.86;;;;;;;12.93;92.36;99824.44;2008273;81;20240;-82
2021/07/09 01:00:42;;;;;;;1.54;0.70;;;;;;;12.90;92.38;99824.44;2007167;81;20182;-82
2021/07/09 01:03:45;;;;;;;1.26;0.90;;;;;;;12.90;92.25;99821.84;2005114;81;20190;-83
2021/07/09 01:06:47;;;;;;;5.85;1.01;;;;;;;12.87;92.15;99814.03;2005678;81;20758;-82
2021/07/09 01:09:51;;;;;;;2.96;0.88;;;;;;;12.86;92.03;99814.91;2006233;81;20182;-82
2021/07/09 01:12:54;;;;;;;6.36;1.09;;;;;;;12.84;91.97;99811.47;2006866;81;20208;-83
2021/07/09 01:15:58;;;;;;;6.82;1.00;;;;;;;12.83;91.90;99807.13;2006256;81;20198;-82
2021/07/09 01:19:01;;;;;;;3.35;1.10;;;;;;;12.80;91.68;99809.75;2005672;78;22177;-82
2021/07/09 01:22:05;;;;;;;4.85;1.36;;;;;;;12.78;91.46;99806.31;2006330;81;20182;-73
2021/07/09 01:25:10;;;;;;;2.61;1.20;;;;;;;12.71;91.33;99808.94;2004622;81;20168;-85
2021/07/09 01:28:13;;;;;;;5.39;1.05;;;;;;;12.63;91.60;99796.84;2008205;81;20216;-82
2021/07/09 01:31:15;;;;;;;5.25;1.23;;;;;;;12.61;91.88;99801.19;2007914;81;20204;-82
2021/07/09 01:34:18;;;;;;;13.43;1.20;;;;;;;12.62;91.96;99803.78;2007408;78;20204;-83
2021/07/09 01:37:21;;;;;;;6.68;0.99;;;;;;;12.58;91.86;99803.84;2010813;81;20196;-85
2021/07/09 01:40:24;;;;;;;6.45;1.00;;;;;;;12.52;92.08;99802.09;2007707;81;20244;-83
2021/07/09 01:43:27;;;;;;;6.66;1.05;;;;;;;12.51;92.31;99800.38;2008623;81;20641;-82
2021/07/09 01:46:30;;;;;;;2.09;0.93;;;;;;;12.53;92.46;99803.84;2008661;78;22386;-83
2021/07/09 01:49:49;;;;;;;4.39;0.95;;;;;;;12.55;92.39;99790.78;2010193;81;20300;-83
2021/07/09 01:52:52;;;;;;;3.45;1.23;;;;;;;12.54;92.28;99795.13;2009517;81;20608;-83
2021/07/09 01:55:55;;;;;;;4.15;1.15;;;;;;;12.53;92.30;99790.81;2008041;80;20174;-82
2021/07/09 01:58:58;;;;;;;6.26;1.10;;;;;;;12.54;92.43;99786.47;2011311;81;20196;-84
2021/07/09 02:02:00;;;;;;;1.91;1.00;;;;;;;12.53;92.47;99796.03;2009167;81;20220;-83
2021/07/09 02:05:07;;;;;;;7.00;1.29;;;;;;;12.53;92.27;99788.19;2009319;81;20175;-82
2021/07/09 02:08:11;;;;;;;4.13;1.05;;;;;;;12.49;92.14;99789.09;2009073;81;20179;-85
2021/07/09 02:11:13;;;;;;;2.67;1.05;;;;;;;12.46;92.03;99790.88;2010754;80;20182;-82
2021/07/09 02:14:16;;;;;;;4.61;1.13;;;;;;;12.43;91.91;99796.09;2008388;81;20573;-83
2021/07/09 02:17:21;;;;;;;3.76;0.90;;;;;;;12.37;91.90;99784.81;2010881;77;21166;-83
2021/07/09 02:20:25;;;;;;;2.71;1.24;;;;;;;12.35;91.92;99783.97;2008990;81;20260;-85
2021/07/09 02:23:28;;;;;;;2.99;1.25;;;;;;;12.29;91.83;99791.81;2011595;81;20182;-83
2021/07/09 02:26:30;;;;;;;2.10;0.90;;;;;;;12.25;91.90;99789.25;2007765;81;20240;-83
2021/07/09 02:29:34;;;;;;;5.10;1.00;;;;;;;12.25;91.86;99792.72;2008332;81;20201;-83
2021/07/09 02:32:38;;;;;;;3.81;0.90;;;;;;;12.22;91.84;99790.13;2009311;78;20821;-82
2021/07/09 02:35:41;;;;;;;7.90;0.91;;;;;;;12.22;91.84;99786.66;2010195;81;20275;-83
2021/07/09 02:38:44;;;;;;;2.76;0.80;;;;;;;12.19;91.77;99782.31;2007310;81;20206;-82
2021/07/09 02:41:47;;;;;;;4.74;1.01;;;;;;;12.18;91.87;99788.38;2008977;81;20272;-84
2021/07/09 02:44:49;;;;;;;2.53;0.76;;;;;;;12.15;91.71;99791.00;2007214;81;20248;-83
2021/07/09 02:47:52;;;;;;;2.30;1.06;;;;;;;12.09;91.73;99791.91;2009206;78;20178;-81
2021/07/09 02:50:54;;;;;;;5.88;0.90;;;;;;;12.07;91.95;99787.59;2009769;81;20233;-82
2021/07/09 02:53:57;;;;;;;2.75;0.90;;;;;;;12.06;91.95;99788.47;2009066;81;20192;-83
2021/07/09 02:57:00;;;;;;;5.68;0.91;;;;;;;12.05;92.20;99791.94;2008114;81;20204;-83
2021/07/09 03:00:06;;;;;;;3.35;0.90;;;;;;;12.03;92.27;99797.16;2007993;81;20247;-83
2021/07/09 03:03:09;;;;;;;4.10;0.79;;;;;;;12.00;92.23;99791.94;2014023;78;22053;-82
2021/07/09 03:06:11;;;;;;;2.45;0.86;;;;;;;12.00;92.18;99785.88;2008113;81;20238;-83
2021/07/09 03:09:14;;;;;;;3.96;0.84;;;;;;;11.99;92.16;99791.94;2014079;81;20218;-83
2021/07/09 03:12:17;;;;;;;4.56;0.80;;;;;;;11.97;92.05;99798.88;2010939;81;20182;-83
2021/07/09 03:15:19;;;;;;;0.89;0.84;;;;;;;11.95;92.14;99791.09;2009165;81;20186;-83
2021/07/09 03:18:22;;;;;;;0.81;0.70;;;;;;;11.93;92.06;99794.56;2006923;81;20186;-84
2021/07/09 03:21:24;;;;;;;4.21;0.89;;;;;;;11.91;92.13;99804.13;2010220;81;20178;-83
2021/07/09 03:24:27;;;;;;;4.29;0.80;;;;;;;11.89;92.24;99806.75;2008358;81;20178;-83
2021/07/09 03:27:29;;;;;;;7.78;1.00;;;;;;;11.89;92.16;99804.13;2010374;81;20628;-83
2021/07/09 03:30:32;;;;;;;5.86;0.80;;;;;;;11.90;92.08;99812.81;2008400;81;20296;-84
2021/07/09 03:33:35;;;;;;;3.00;0.80;;;;;;;11.89;92.09;99814.53;2011544;81;20217;-82
2021/07/09 03:36:43;;;;;;;6.71;0.90;;;;;;;11.85;92.00;99807.63;2006422;81;20247;-82
2021/07/09 03:39:49;;;;;;;5.75;0.86;;;;;;;11.83;91.97;99806.72;2008392;81;20284;-85
2021/07/09 03:42:52;;;;;;;3.01;0.90;;;;;;;11.84;91.88;99811.06;2016131;80;20224;-83
2021/07/09 03:45:55;;;;;;;0.70;0.70;;;;;;;11.82;91.81;99811.94;2009059;78;21587;-83
2021/07/09 03:48:57;;;;;;;2.70;0.80;;;;;;;11.80;91.73;99817.16;2007529;81;20360;-83
2021/07/09 03:52:00;;;;;;;3.22;0.71;;;;;;;11.81;91.72;99813.69;2007812;81;20248;-82
2021/07/09 03:55:05;;;;;;;0.77;0.77;;;;;;;11.80;91.76;99815.41;2007958;81;20256;-83
2021/07/09 03:58:07;;;;;;;4.82;1.00;;;;;;;11.81;91.90;99821.47;2007810;81;20195;-83
2021/07/09 04:01:13;;;;;;;5.03;0.90;;;;;;;11.80;91.95;99825.81;2006984;81;20208;-84
2021/07/09 04:04:15;;;;;;;3.03;0.80;;;;;;;11.79;92.13;99825.84;2009119;81;20186;-83
2021/07/09 04:07:18;;;;;;;1.23;0.80;;;;;;;11.82;92.11;99825.81;2008006;81;20190;-83
2021/07/09 04:10:21;;;;;;;1.29;0.75;;;;;;;11.82;92.13;99827.56;2010457;81;20196;-83
2021/07/09 04:13:23;;;;;;;2.89;0.90;;;;;;;11.82;92.11;99825.81;2007872;81;20178;-83
2021/07/09 04:16:26;;;;;;;3.10;0.75;;;;;;;11.82;92.01;99832.75;2007133;81;20200;-83
2021/07/09 04:19:29;;;;;;;2.15;0.93;;;;;;;11.83;91.90;99830.16;2005948;81;20187;-81
2021/07/09 04:22:31;;;;;;;3.51;0.96;;;;;;;11.80;91.87;99836.22;2005126;81;20845;-82
2021/07/09 04:25:34;;;;;;;5.36;1.10;;;;;;;11.79;91.92;99838.84;2006718;81;20215;-82
2021/07/09 04:28:37;;;;;;;2.29;0.80;;;;;;;11.73;91.72;99838.81;2009582;81;20210;-82
2021/07/09 04:31:39;;;;;;;2.76;1.00;;;;;;;11.74;91.87;99843.16;2004237;78;21749;-83
2021/07/09 04:34:42;;;;;;;3.67;0.94;;;;;;;11.73;92.03;99833.63;2007058;81;20311;-83
2021/07/09 04:37:45;;;;;;;3.94;1.09;;;;;;;11.71;91.91;99831.03;2006889;81;20178;-82
2021/07/09 04:40:47;;;;;;;6.71;1.09;;;;;;;11.68;91.74;99831.03;2007180;81;20171;-82
2021/07/09 04:43:50;;;;;;;2.30;1.20;;;;;;;11.68;91.82;99833.66;2006694;81;20264;-83
2021/07/09 04:46:52;;;;;;;2.24;0.88;;;;;;;11.69;91.93;99837.13;2004637;81;20240;-81
2021/07/09 04:49:55;;;;;;;0.89;0.88;;;;;;;11.70;92.07;99834.50;2004757;81;20212;-81
2021/07/09 04:52:58;;;;;;;6.55;0.99;;;;;;;11.69;92.13;99837.97;2006878;81;20186;-81
2021/07/09 04:56:00;;;;;;;2.09;1.01;;;;;;;11.72;92.61;99830.16;2003452;81;20190;-82
2021/07/09 04:59:03;;;;;;;1.36;1.00;;;;;;;11.85;93.22;99840.56;2002126;81;20523;-81
2021/07/09 05:02:07;;;;;;;2.49;1.00;;;;;;;11.96;93.52;99836.19;2004677;81;25447;-81
2021/07/09 05:05:13;;;;;;;4.11;1.01;;;;;;;12.11;93.41;99830.94;2004821;81;20241;-82
2021/07/09 05:08:20;;;;;;;3.44;1.00;;;;;;;12.24;93.16;99830.03;2005859;81;20303;-82
2021/07/09 05:11:22;;;;;;;5.80;1.06;;;;;;;12.43;92.83;99833.41;2002485;81;20204;-78
2021/07/09 05:14:27;;;;;;;4.53;0.90;;;;;;;12.64;92.24;99835.91;1998287;81;20256;-82
2021/07/09 05:17:29;;;;;;;3.24;0.81;;;;;;;12.85;91.57;99831.44;2003682;78;20200;-82
2021/07/09 05:20:32;;;;;;;2.10;0.80;;;;;;;13.10;90.83;99829.50;2004932;81;20178;-80
2021/07/09 05:23:34;;;;;;;4.04;0.74;;;;;;;13.41;89.90;99831.03;2008972;81;20171;-82
2021/07/09 05:26:37;;;;;;;2.13;1.01;;;;;;;13.77;88.89;99834.16;2009999;81;20198;-83
2021/07/09 05:29:40;;;;;;;1.75;0.90;;;;;;;14.09;87.71;99829.47;2009857;80;20200;-84
2021/07/09 05:32:43;;;;;;;1.39;0.79;;;;;;;14.37;86.98;99837.84;2014920;78;22538;-84
2021/07/09 05:35:47;;;;;;;3.99;1.00;;;;;;;14.74;85.78;99840.00;2014705;81;20204;-83
2021/07/09 05:38:49;;;;;;;4.15;0.90;;;;;;;15.16;84.09;99842.84;2009527;81;20127;-83
2021/07/09 05:41:52;;;;;;;6.07;1.36;;;;;;;15.50;82.65;99832.69;2011769;81;20192;-84
2021/07/09 05:44:54;;;;;;;2.44;1.10;;;;;;;15.94;81.10;99840.63;2020377;81;20178;-84
2021/07/09 05:47:57;;;;;;;1.95;1.10;;;;;;;16.37;79.58;99838.94;2011651;78;21425;-86
2021/07/09 05:51:00;;;;;;;2.72;1.00;;;;;;;16.70;78.32;99840.88;2022471;81;20205;-85
2021/07/09 05:54:03;;;;;;;2.79;1.00;;;;;;;16.93;77.64;99840.34;2013618;81;20196;-86
2021/07/09 05:57:05;;;;;;;2.20;1.33;;;;;;;17.18;76.96;99838.00;2005960;81;20956;-75
2021/07/09 06:00:10;;;;;;;2.51;1.16;;;;;;;17.40;76.36;99839.19;2010102;81;20174;-83
2021/07/09 06:03:12;;;;;;;1.76;1.36;;;;;;;17.66;76.00;99835.03;2010711;81;20249;-86
2021/07/09 06:06:15;;;;;;;5.26;1.59;;;;;;;18.05;74.89;99835.75;2011107;81;20182;-85
2021/07/09 06:09:17;;;;;;;10.04;2.28;;;;;;;18.44;73.63;99839.03;2010487;81;20224;-84
2021/07/09 06:12:21;;;;;;;3.04;1.80;;;;;;;18.83;72.72;99841.38;2011802;81;20277;-86
2021/07/09 06:15:23;;;;;;;4.96;2.44;;;;;;;19.24;72.02;99838.34;2012569;81;20182;-86
2021/07/09 06:18:50;;;;;;;3.86;2.14;;;;;;;19.70;70.34;99843.84;2023228;70;20186;-84
2021/07/09 06:21:56;;;;;;;3.09;2.00;;;;;;;20.12;69.27;99839.72;2010421;81;20175;-83
2021/07/09 06:25:00;;;;;;;8.61;2.08;;;;;;;20.44;68.35;99838.53;2011087;81;20186;-83
2021/07/09 06:28:03;;;;;;;6.85;3.28;;;;;;;20.76;67.02;99844.38;2013119;81;20174;-83
2021/07/09 06:31:06;;;;;;;5.81;2.19;;;;;;;21.03;65.96;99845.09;2009495;81;20196;-83
2021/07/09 06:34:09;;;;;;;3.21;2.20;;;;;;;21.20;64.78;99857.63;2015933;81;20174;-85
2021/07/09 06:37:12;;;;;;;5.06;2.53;;;;;;;21.44;64.59;99853.13;2016373;81;20171;-83
2021/07/09 06:40:21;;;;;;;4.41;2.41;;;;;;;21.63;64.33;99859.38;2048934;70;20154;-85
2021/07/09 06:43:24;;;;;;;3.31;2.17;;;;;;;21.80;63.67;99861.28;2118562;70;20167;-85
2021/07/09 06:46:27;;;;;;;4.59;2.44;;;;;;;21.70;62.97;99866.09;2011999;81;20188;-84
2021/07/09 06:49:31;;;;;;;6.79;3.00;;;;;;;21.91;63.09;99856.41;2013037;81;20176;-85
2021/07/09 06:52:34;;;;;;;9.09;2.69;;;;;;;22.10;62.36;99861.78;2009100;81;20178;-85
2021/07/09 06:55:36;;;;;;;4.66;2.38;;;;;;;22.14;61.96;99860.72;2019520;81;20194;-84
2021/07/09 07:01:59;;;;;;;5.19;2.44;;;;;;;22.12;61.14;99866.09;2055795;70;237497;-82
2021/07/09 07:05:03;;;;;;;4.00;2.33;;;;;;;22.04;62.92;99865.50;2011576;81;20119;-83
2021/07/09 07:08:16;;;;;;;2.92;2.26;;;;;;;22.06;63.24;99868.97;2009228;81;20174;-75
2021/07/09 07:11:19;;;;;;;2.59;2.25;;;;;;;22.02;62.72;99864.72;2006571;81;20194;-82
2021/07/09 07:14:21;;;;;;;3.97;2.85;;;;;;;21.53;63.79;99869.44;2002610;81;20837;-78
2021/07/09 07:17:25;;;;;;;9.44;3.17;;;;;;;21.24;63.53;99875.94;1999427;79;20641;-76
2021/07/09 07:20:27;;;;;;;5.81;3.14;;;;;;;21.19;64.42;99880.53;2002095;81;20233;-80
2021/07/09 07:23:30;;;;;;;7.76;3.55;;;;;;;21.21;65.26;99881.31;2004355;81;20198;-78
2021/07/09 07:26:32;;;;;;;7.36;3.79;;;;;;;21.57;64.58;99881.63;2002323;81;20170;-80
2021/07/09 07:29:35;;;;;;;5.69;3.64;;;;;;;21.89;62.87;99882.91;2000935;81;20207;-78
2021/07/09 07:32:41;;;;;;;7.85;3.67;;;;;;;21.97;62.50;99880.78;1999953;78;22959;-75
2021/07/09 07:35:43;;;;;;;4.64;3.66;;;;;;;22.38;62.22;99879.94;1999153;81;20206;-79
2021/07/09 07:38:47;;;;;;;3.67;2.94;;;;;;;22.72;62.17;99872.16;2002669;80;20213;-79
2021/07/09 07:41:49;;;;;;;4.61;3.30;;;;;;;22.91;61.03;99878.34;2007516;81;20198;-80
2021/07/09 07:44:52;;;;;;;3.58;3.24;;;;;;;23.04;60.31;99883.06;2008456;81;20186;-78
2021/07/09 07:47:55;;;;;;;6.11;3.78;;;;;;;23.40;60.95;99883.09;2004457;78;26502;-78
2021/07/09 07:50:57;;;;;;;5.56;4.03;;;;;;;23.72;59.27;99881.53;2005090;81;20188;-82
2021/07/09 07:54:00;;;;;;;6.50;3.59;;;;;;;23.50;57.94;99885.19;2010155;81;20637;-81
2021/07/09 07:57:03;;;;;;;4.61;3.69;;;;;;;23.06;59.99;99879.41;2010449;81;20268;-81
2021/07/09 08:00:06;;;;;;;8.88;4.35;;;;;;;22.88;60.97;99883.78;2008814;81;20182;-82
2021/07/09 08:03:09;;;;;;;9.09;4.61;;;;;;;22.92;60.59;99877.41;2008826;80;22807;-81
2021/07/09 08:06:11;;;;;;;7.45;5.09;;;;;;;23.27;60.85;99881.97;2007490;81;20170;-81
2021/07/09 08:09:15;;;;;;;9.99;4.86;;;;;;;23.29;59.24;99878.28;2011381;81;20174;-84
2021/07/09 08:12:18;;;;;;;8.69;4.66;;;;;;;22.86;59.70;99885.66;2010021;81;20276;-84
2021/07/09 08:15:20;;;;;;;5.26;4.28;;;;;;;22.88;59.56;99882.94;2015953;81;20199;-77
2021/07/09 08:18:23;;;;;;;5.34;4.66;;;;;;;23.12;59.37;99879.09;2012247;81;20252;-83
2021/07/09 08:21:26;;;;;;;4.81;4.41;;;;;;;23.04;59.54;99878.63;2010911;81;20166;-80
2021/07/09 08:24:28;;;;;;;8.26;4.36;;;;;;;22.98;59.14;99876.28;2009568;81;20167;-84
2021/07/09 08:27:31;;;;;;;5.55;4.04;;;;;;;23.14;59.27;99874.59;2009347;81;20222;-77
2021/07/09 08:30:34;;;;;;;7.03;4.71;;;;;;;23.35;58.72;99874.50;2014419;81;20131;-83
2021/07/09 08:33:37;;;;;;;5.16;4.66;;;;;;;23.54;58.65;99885.91;2010570;81;20196;-83
2021/07/09 08:36:39;;;;;;;5.13;3.97;;;;;;;23.88;58.21;99873.63;2007038;81;20210;-79
2021/07/09 08:39:42;;;;;;;7.64;4.85;;;;;;;24.30;58.50;99878.53;1999897;81;20174;-80
2021/07/09 08:42:47;;;;;;;7.99;5.46;;;;;;;24.27;56.44;99873.34;2001983;81;20139;-85
2021/07/09 08:45:50;;;;;;;7.05;4.70;;;;;;;23.85;56.37;99871.13;1998747;81;20261;-80
2021/07/09 08:48:52;;;;;;;8.10;5.51;;;;;;;23.89;57.15;99870.91;2003032;81;20312;-80
2021/07/09 08:51:55;;;;;;;6.30;4.84;;;;;;;24.13;56.16;99873.22;2007966;81;20200;-81
2021/07/09 08:54:58;;;;;;;4.79;4.20;;;;;;;24.21;55.82;99868.34;2007194;81;20568;-82
2021/07/09 08:58:00;;;;;;;5.70;4.72;;;;;;;24.10;57.23;99863.63;2009552;81;20166;-82
2021/07/09 09:01:16;;;;;;;7.34;4.50;;;;;;;24.37;56.20;99867.50;2007831;78;23984;-82
2021/07/09 09:04:24;;;;;;;12.48;4.64;;;;;;;24.31;55.55;99865.19;2009890;81;20170;-80
2021/07/09 09:07:28;;;;;;;5.78;4.68;;;;;;;24.39;54.83;99857.66;2007529;81;20174;-79
2021/07/09 09:10:49;;;;;;;4.80;3.80;;;;;;;24.63;54.01;99857.28;2005666;81;20182;-80
2021/07/09 09:13:55;;;;;;;4.16;3.74;;;;;;;24.69;54.24;99857.78;2001880;81;20230;-80
2021/07/09 09:16:58;;;;;;;8.38;3.83;;;;;;;24.74;54.25;99861.97;2012212;78;29529;-81
2021/07/09 09:20:14;;;;;;;7.35;3.61;;;;;;;24.83;53.44;99859.69;2007636;81;20229;-82
2021/07/09 09:23:20;;;;;;;5.68;3.39;;;;;;;24.93;52.90;99858.22;2006217;81;20166;-80
2021/07/09 09:26:45;;;;;;;6.21;3.42;;;;;;;25.36;52.53;99854.97;2007909;81;20248;-81
2021/07/09 09:29:48;;;;;;;5.11;3.44;;;;;;;25.18;51.73;99859.53;2006992;81;20206;-81
2021/07/09 09:32:51;;;;;;;4.44;3.39;;;;;;;24.64;52.71;99851.88;2006416;78;20186;-79
2021/07/09 09:35:55;;;;;;;4.21;3.00;;;;;;;24.16;54.17;99842.06;1999665;81;20219;-79
2021/07/09 09:39:02;;;;;;;3.14;2.42;;;;;;;24.11;54.03;99850.28;2005968;81;20216;-82
2021/07/09 09:42:21;;;;;;;3.13;2.35;;;;;;;24.45;53.87;99845.84;2005856;81;20228;-80
2021/07/09 09:45:26;;;;;;;2.55;2.00;;;;;;;24.66;51.79;99836.72;2009803;81;20194;-81
2021/07/09 09:48:38;;;;;;;8.51;2.45;;;;;;;24.85;51.38;99841.00;2003369;81;20178;-81
2021/07/09 09:51:40;;;;;;;4.20;2.25;;;;;;;24.50;52.08;99841.16;2002273;80;20167;-80
2021/07/09 09:54:46;;;;;;;5.59;1.85;;;;;;;24.45;54.20;99843.19;2005759;81;20226;-80
2021/07/09 09:58:08;;;;;;;3.29;1.96;;;;;;;24.97;54.06;99832.34;2003472;81;20208;-80
2021/07/09 10:01:14;;;;;;;3.33;1.90;;;;;;;25.10;50.64;99835.19;2004240;78;91439;-82
2021/07/09 10:04:17;;;;;;;3.06;1.71;;;;;;;24.91;50.51;99827.38;2007368;81;20299;-80
2021/07/09 10:07:23;;;;;;;4.03;2.34;;;;;;;24.63;51.56;99831.56;2000323;81;20758;-79
2021/07/09 10:10:28;;;;;;;2.36;1.73;;;;;;;24.22;51.58;99839.06;2000207;81;20356;-79
2021/07/09 10:13:35;;;;;;;4.05;1.56;;;;;;;24.00;52.75;99834.06;2000658;81;20208;-80
2021/07/09 10:16:40;;;;;;;2.89;1.48;;;;;;;24.40;52.79;99826.66;2006621;78;77517;-79
2021/07/09 10:19:46;;;;;;;3.99;1.67;;;;;;;25.07;52.03;99828.25;2003161;81;20182;-78
2021/07/09 10:23:11;;;;;;;3.39;2.13;;;;;;;25.59;50.49;99818.09;2004053;81;20304;-79
2021/07/09 10:26:18;;;;;;;2.95;1.67;;;;;;;25.85;47.61;99823.69;2000505;81;20174;-77
2021/07/09 10:29:28;;;;;;;2.85;1.66;;;;;;;26.26;48.99;99817.66;2011487;81;20527;-79
2021/07/09 10:32:42;;;;;;;2.95;1.81;;;;;;;26.56;49.00;99813.06;1997338;78;20206;-80
2021/07/09 10:35:45;;;;;;;5.21;1.61;;;;;;;26.35;48.29;99823.28;2002783;81;20224;-80
2021/07/09 10:38:52;;;;;;;2.26;1.33;;;;;;;26.14;48.24;99820.09;2002988;81;20247;-80
2021/07/09 10:41:56;;;;;;;2.20;1.38;;;;;;;25.66;47.54;99817.72;2003776;81;20187;-79
2021/07/09 10:45:03;;;;;;;3.75;1.90;;;;;;;25.48;49.81;99819.66;2004507;81;20260;-80
2021/07/09 10:48:08;;;;;;;4.14;1.76;;;;;;;25.86;47.92;99817.44;2000201;78;20246;-81
2021/07/09 10:51:11;;;;;;;4.36;1.96;;;;;;;26.08;47.33;99820.50;1999779;81;20195;-80
2021/07/09 10:54:23;;;;;;;3.59;1.40;;;;;;;26.36;45.38;99808.16;1996375;81;20764;-80
2021/07/09 10:57:26;;;;;;;1.75;1.34;;;;;;;26.57;45.86;99809.47;1993830;81;20220;-80
2021/07/09 11:00:30;;;;;;;4.43;1.48;;;;;;;26.61;46.61;99804.81;1992527;78;22607;-79
2021/07/09 11:04:08;;;;;;;2.90;1.42;;;;;;;26.28;47.07;99816.59;1995315;81;20780;-80
2021/07/09 11:07:20;;;;;;;4.70;1.40;;;;;;;25.77;48.54;99810.84;1991260;81;20227;-80
2021/07/09 11:10:57;;;;;;;2.88;1.67;;;;;;;25.33;49.13;99813.47;1997951;81;21065;-80
2021/07/09 11:14:07;;;;;;;1.60;1.38;;;;;;;25.58;47.14;99804.88;1997927;81;20259;-80
2021/07/09 11:17:21;;;;;;;2.00;1.70;;;;;;;25.95;47.34;99808.03;1994450;79;23086;-80
2021/07/09 11:20:31;;;;;;;1.88;1.56;;;;;;;26.14;46.71;99813.94;1995571;81;20211;-80
2021/07/09 11:23:50;;;;;;;1.91;1.20;;;;;;;25.90;47.29;99809.16;2000138;81;20224;-80
2021/07/09 11:27:01;;;;;;;3.24;1.01;;;;;;;25.46;46.69;99813.59;2000508;81;20943;-80
2021/07/09 11:30:11;;;;;;;2.42;1.10;;;;;;;25.16;47.29;99824.22;1997126;81;20232;-79
2021/07/09 11:33:23;;;;;;;1.75;1.20;;;;;;;24.95;48.19;99824.44;1997133;81;20443;-79
2021/07/09 11:36:25;;;;;;;2.13;0.94;;;;;;;24.95;48.08;99816.47;1996552;81;20171;-80
2021/07/09 11:39:39;;;;;;;2.59;1.25;;;;;;;25.20;48.60;99808.00;1997245;81;20210;-79
2021/07/09 11:42:41;;;;;;;4.05;1.51;;;;;;;25.32;47.41;99808.25;1997262;81;20282;-80
2021/07/09 11:45:44;;;;;;;4.45;1.40;;;;;;;25.16;47.43;99802.97;1998167;78;21231;-80
2021/07/09 11:48:46;;;;;;;2.95;1.29;;;;;;;25.11;48.77;99800.53;2003670;81;20248;-80
2021/07/09 11:51:52;;;;;;;2.41;1.31;;;;;;;25.35;47.68;99797.44;2001047;80;20214;-79
2021/07/09 11:54:57;;;;;;;1.74;1.20;;;;;;;26.05;47.12;99795.88;2001273;81;20213;-80
2021/07/09 11:58:07;;;;;;;2.79;1.10;;;;;;;26.39;44.90;99784.88;1998848;81;20292;-76
2021/07/09 12:01:18;;;;;;;1.58;1.19;;;;;;;26.73;46.34;99794.19;2004826;81;23719;-82
2021/07/09 12:04:32;;;;;;;5.46;0.90;;;;;;;26.91;44.95;99796.63;2002129;81;20565;-81
2021/07/09 12:07:44;;;;;;;1.26;1.00;;;;;;;26.94;44.11;99796.44;2001127;81;20207;-83
2021/07/09 12:10:47;;;;;;;3.06;0.94;;;;;;;26.83;43.67;99799.81;2002652;81;20166;-81
2021/07/09 12:14:07;;;;;;;3.50;0.99;;;;;;;26.41;44.19;99798.09;2004753;81;20703;-80
2021/07/09 12:17:15;;;;;;;1.00;0.90;;;;;;;25.94;45.99;99791.22;2009836;81;20127;-83
2021/07/09 12:23:47;;;;;;;1.23;0.90;;;;;;;25.13;47.62;99782.69;2015484;70;20170;-80
2021/07/09 12:26:50;;;;;;;2.03;1.06;;;;;;;25.07;48.34;99777.75;2009123;81;20178;-81
2021/07/09 12:29:52;;;;;;;4.39;0.90;;;;;;;25.03;48.79;99783.34;2006668;81;20262;-81
2021/07/09 12:33:03;;;;;;;3.49;1.13;;;;;;;25.04;47.28;99780.59;2004171;78;35365;-80
2021/07/09 12:36:23;;;;;;;2.12;1.13;;;;;;;25.38;48.15;99771.50;2008002;81;20271;-80
2021/07/09 12:39:25;;;;;;;1.16;0.80;;;;;;;25.80;48.13;99769.91;2009715;81;20200;-82
2021/07/09 12:42:33;;;;;;;2.36;0.81;;;;;;;26.23;46.10;99768.13;2009359;81;20178;-83
2021/07/09 12:45:36;;;;;;;3.67;0.92;;;;;;;26.44;43.58;99761.47;2012521;81;20240;-81
2021/07/09 12:49:00;;;;;;;1.63;0.80;;;;;;;26.47;43.04;99761.25;2003766;81;20227;-76
2021/07/09 12:52:04;;;;;;;0.99;0.70;;;;;;;26.71;42.93;99761.47;1997037;81;20222;-77
2021/07/09 12:55:38;;;;;;;2.14;0.90;;;;;;;26.89;41.96;99746.09;1997396;81;20208;-76
2021/07/09 12:58:40;;;;;;;1.56;0.80;;;;;;;26.96;42.60;99743.88;1996991;81;20175;-74
2021/07/09 13:01:45;;;;;;;1.61;0.90;;;;;;;27.23;44.00;99752.72;1996515;78;20624;-77
2021/07/09 13:04:48;;;;;;;2.75;0.79;;;;;;;27.23;41.83;99750.06;1996574;81;20186;-75
2021/07/09 13:08:06;;;;;;;1.71;0.80;;;;;;;27.40;43.08;99754.25;1997459;81;20212;-75
2021/07/09 13:11:19;;;;;;;2.53;0.90;;;;;;;27.48;42.52;99753.75;1996463;81;20170;-77
2021/07/09 13:14:28;;;;;;;2.09;0.86;;;;;;;27.38;41.08;99756.19;1997208;81;20174;-75
2021/07/09 13:17:34;;;;;;;2.39;0.88;;;;;;;27.31;42.31;99762.91;1995919;78;35675;-77
2021/07/09 13:20:39;;;;;;;4.09;0.86;;;;;;;27.34;42.64;99752.88;1997056;81;20729;-78
2021/07/09 13:23:59;;;;;;;2.26;0.70;;;;;;;27.47;42.53;99757.34;1997265;81;20190;-78
2021/07/09 13:27:18;;;;;;;2.74;0.80;;;;;;;27.44;40.47;99769.09;1997801;81;20186;-78
2021/07/09 13:30:20;;;;;;;0.85;0.70;;;;;;;27.48;40.09;99759.94;1996328;81;20827;-78
2021/07/09 13:33:23;;;;;;;2.89;0.60;;;;;;;27.44;38.86;99766.41;1996375;81;21247;-78
2021/07/09 13:36:33;;;;;;;1.46;0.68;;;;;;;27.48;40.91;99767.09;1998777;81;20226;-74
2021/07/09 13:39:35;;;;;;;2.25;0.64;;;;;;;27.49;40.00;99764.31;1997081;81;20206;-80
2021/07/09 13:42:38;;;;;;;1.13;0.70;;;;;;;27.59;40.14;99765.38;2000179;81;20170;-81
2021/07/09 13:45:41;;;;;;;0.76;0.76;;;;;;;27.65;40.84;99775.69;2000958;78;27122;-83
2021/07/09 13:48:43;;;;;;;3.03;1.30;;;;;;;27.82;40.77;99773.63;1997728;81;20187;-81
2021/07/09 13:51:46;;;;;;;0.91;0.74;;;;;;;27.58;39.61;99769.00;1998855;81;20212;-83
2021/07/09 13:54:49;;;;;;;1.31;0.80;;;;;;;27.33;39.84;99779.66;1999459;81;20208;-83
2021/07/09 13:57:52;;;;;;;1.38;0.80;;;;;;;27.12;42.02;99781.09;2001484;81;20191;-83
2021/07/09 14:00:55;;;;;;;3.16;0.90;;;;;;;27.06;41.57;99769.84;2000267;78;24533;-83
2021/07/09 14:03:57;;;;;;;2.63;0.80;;;;;;;26.92;40.95;99769.88;1999675;81;20186;-83
2021/07/09 14:07:02;;;;;;;1.85;0.80;;;;;;;26.97;41.77;99774.91;2002646;81;20210;-82
2021/07/09 14:10:06;;;;;;;2.21;0.80;;;;;;;27.07;42.73;99768.88;1999327;81;20183;-83
2021/07/09 14:13:08;;;;;;;1.86;1.06;;;;;;;27.06;42.54;99777.00;2000381;81;20294;-82
2021/07/09 14:16:11;;;;;;;2.75;1.00;;;;;;;27.05;42.72;99768.13;1997607;81;23417;-80
2021/07/09 14:19:14;;;;;;;2.59;1.04;;;;;;;27.03;42.63;99770.06;1998330;81;20629;-81
2021/07/09 14:22:17;;;;;;;3.13;0.90;;;;;;;26.84;42.72;99774.00;1998295;81;20214;-81
2021/07/09 14:25:20;;;;;;;2.11;0.80;;;;;;;26.81;41.00;99775.06;1999548;81;20980;-81
2021/07/09 14:28:23;;;;;;;1.71;0.88;;;;;;;26.82;41.65;99779.44;2001998;81;20230;-82
2021/07/09 14:31:26;;;;;;;1.26;0.96;;;;;;;26.85;40.82;99781.03;1999817;81;22592;-82
2021/07/09 14:34:28;;;;;;;0.93;0.80;;;;;;;26.67;40.44;99767.09;2009444;81;20199;-82
2021/07/09 14:37:31;;;;;;;3.58;0.85;;;;;;;26.71;42.39;99765.94;2002640;81;20324;-82
2021/07/09 14:40:34;;;;;;;3.89;0.98;;;;;;;26.84;42.10;99752.69;2002470;81;20186;-82